sensor_id;sensor_type;location;lat;lon;timestamp;temperature;humidity
79467;SHT30;68933;49.726;9.226;2024-03-06T00:01:01;8.9;76
79467;SHT30;68933;49.726;9.226;2024-03-06T00:03:14;8.9;76
79467;SHT30;68933;49.726;9.226;2024-03-06T00:05:27;8.9;76
79467;SHT30;68933;49.726;9.226;2024-03-06T00:07:40;8.9;76
79467;SHT30;68933;49.726;9.226;2024-03-06T00:09:53;8.8;76
79467;SHT30;68933;49.726;9.226;2024-03-06T00:12:06;8.8;76
79467;SHT30;68933;49.726;9.226;2024-03-06T00:14:20;8.8;76
79467;SHT30;68933;49.726;9.226;2024-03-06T00:16:32;8.8;76
79467;SHT30;68933;49.726;9.226;2024-03-06T00:18:45;8.8;76
79467;SHT30;68933;49.726;9.226;2024-03-06T00:20:58;8.8;76
79467;SHT30;68933;49.726;9.226;2024-03-06T00:23:11;8.8;76
79467;SHT30;68933;49.726;9.226;2024-03-06T00:33:23;8.8;76
79467;SHT30;68933;49.726;9.226;2024-03-06T00:35:35;8.8;76
79467;SHT30;68933;49.726;9.226;2024-03-06T00:37:48;8.8;76
79467;SHT30;68933;49.726;9.226;2024-03-06T00:40:02;8.8;76
79467;SHT30;68933;49.726;9.226;2024-03-06T00:42:14;8.8;76
79467;SHT30;68933;49.726;9.226;2024-03-06T00:44:27;8.7;76
79467;SHT30;68933;49.726;9.226;2024-03-06T00:46:40;8.7;76
79467;SHT30;68933;49.726;9.226;2024-03-06T00:48:53;8.7;76
79467;SHT30;68933;49.726;9.226;2024-03-06T00:51:06;8.7;76
79467;SHT30;68933;49.726;9.226;2024-03-06T00:53:19;8.6;76
79467;SHT30;68933;49.726;9.226;2024-03-06T00:55:32;8.6;76
79467;SHT30;68933;49.726;9.226;2024-03-06T00:57:45;8.6;76
79467;SHT30;68933;49.726;9.226;2024-03-06T00:59:58;8.5;77
79467;SHT30;68933;49.726;9.226;2024-03-06T01:02:11;8.5;77
79467;SHT30;68933;49.726;9.226;2024-03-06T01:04:24;8.5;77
79467;SHT30;68933;49.726;9.226;2024-03-06T01:06:37;8.5;77
79467;SHT30;68933;49.726;9.226;2024-03-06T01:08:50;8.5;77
79467;SHT30;68933;49.726;9.226;2024-03-06T01:11:03;8.5;77
79467;SHT30;68933;49.726;9.226;2024-03-06T01:13:16;8.4;77
79467;SHT30;68933;49.726;9.226;2024-03-06T01:15:29;8.4;77
79467;SHT30;68933;49.726;9.226;2024-03-06T01:17:42;8.4;77
79467;SHT30;68933;49.726;9.226;2024-03-06T01:19:55;8.4;77
79467;SHT30;68933;49.726;9.226;2024-03-06T01:22:08;8.4;77
79467;SHT30;68933;49.726;9.226;2024-03-06T01:24:21;8.4;77
79467;SHT30;68933;49.726;9.226;2024-03-06T01:26:34;8.4;77
79467;SHT30;68933;49.726;9.226;2024-03-06T01:28:47;8.4;77
79467;SHT30;68933;49.726;9.226;2024-03-06T01:31:00;8.4;77
79467;SHT30;68933;49.726;9.226;2024-03-06T01:33:13;8.4;77
79467;SHT30;68933;49.726;9.226;2024-03-06T01:35:26;8.3;77
79467;SHT30;68933;49.726;9.226;2024-03-06T01:37:39;8.3;77
79467;SHT30;68933;49.726;9.226;2024-03-06T01:39:52;8.3;77
79467;SHT30;68933;49.726;9.226;2024-03-06T01:42:05;8.3;77
79467;SHT30;68933;49.726;9.226;2024-03-06T01:44:19;8.3;77
79467;SHT30;68933;49.726;9.226;2024-03-06T01:46:31;8.2;77
79467;SHT30;68933;49.726;9.226;2024-03-06T01:48:44;8.2;77
79467;SHT30;68933;49.726;9.226;2024-03-06T01:50:58;8.2;77
79467;SHT30;68933;49.726;9.226;2024-03-06T01:53:10;8.2;77
79467;SHT30;68933;49.726;9.226;2024-03-06T01:55:23;8.2;77
79467;SHT30;68933;49.726;9.226;2024-03-06T01:57:36;8.1;77
79467;SHT30;68933;49.726;9.226;2024-03-06T01:59:49;8.1;77
79467;SHT30;68933;49.726;9.226;2024-03-06T02:02:02;8;75
79467;SHT30;68933;49.726;9.226;2024-03-06T02:04:15;8;75
79467;SHT30;68933;49.726;9.226;2024-03-06T02:06:29;8;75
79467;SHT30;68933;49.726;9.226;2024-03-06T02:08:41;7.9;75
79467;SHT30;68933;49.726;9.226;2024-03-06T02:10:54;7.9;75
79467;SHT30;68933;49.726;9.226;2024-03-06T02:13:07;7.9;75
79467;SHT30;68933;49.726;9.226;2024-03-06T02:15:20;7.9;75
79467;SHT30;68933;49.726;9.226;2024-03-06T02:17:33;7.8;75
79467;SHT30;68933;49.726;9.226;2024-03-06T02:19:46;7.8;75
79467;SHT30;68933;49.726;9.226;2024-03-06T02:21:59;7.8;75
79467;SHT30;68933;49.726;9.226;2024-03-06T02:24:12;7.7;75
79467;SHT30;68933;49.726;9.226;2024-03-06T02:26:25;7.7;75
79467;SHT30;68933;49.726;9.226;2024-03-06T02:28:38;7.6;75
79467;SHT30;68933;49.726;9.226;2024-03-06T02:30:52;7.6;75
79467;SHT30;68933;49.726;9.226;2024-03-06T02:33:04;7.5;75
79467;SHT30;68933;49.726;9.226;2024-03-06T02:35:17;7.5;75
79467;SHT30;68933;49.726;9.226;2024-03-06T02:37:30;7.5;75
79467;SHT30;68933;49.726;9.226;2024-03-06T02:39:43;7.4;75
79467;SHT30;68933;49.726;9.226;2024-03-06T02:41:56;7.4;75
79467;SHT30;68933;49.726;9.226;2024-03-06T02:44:09;7.2;75
79467;SHT30;68933;49.726;9.226;2024-03-06T02:46:22;7.2;75
79467;SHT30;68933;49.726;9.226;2024-03-06T02:48:35;7.2;75
79467;SHT30;68933;49.726;9.226;2024-03-06T02:50:48;7.2;75
79467;SHT30;68933;49.726;9.226;2024-03-06T02:53:01;7.1;75
79467;SHT30;68933;49.726;9.226;2024-03-06T02:55:14;7.1;75
79467;SHT30;68933;49.726;9.226;2024-03-06T02:57:27;7.1;75
79467;SHT30;68933;49.726;9.226;2024-03-06T02:59:40;7.1;75
79467;SHT30;68933;49.726;9.226;2024-03-06T03:01:53;7.1;75
79467;SHT30;68933;49.726;9.226;2024-03-06T03:04:06;7.1;75
79467;SHT30;68933;49.726;9.226;2024-03-06T03:06:19;7.1;75
79467;SHT30;68933;49.726;9.226;2024-03-06T03:08:32;7;75
79467;SHT30;68933;49.726;9.226;2024-03-06T03:10:45;7;75
79467;SHT30;68933;49.726;9.226;2024-03-06T03:12:58;7;77
79467;SHT30;68933;49.726;9.226;2024-03-06T03:15:11;7;77
79467;SHT30;68933;49.726;9.226;2024-03-06T03:17:24;7;77
79467;SHT30;68933;49.726;9.226;2024-03-06T03:19:37;7;77
79467;SHT30;68933;49.726;9.226;2024-03-06T03:21:50;7;77
79467;SHT30;68933;49.726;9.226;2024-03-06T03:24:04;6.9;77
79467;SHT30;68933;49.726;9.226;2024-03-06T03:26:16;6.9;77
79467;SHT30;68933;49.726;9.226;2024-03-06T03:28:29;6.9;77
79467;SHT30;68933;49.726;9.226;2024-03-06T03:30:43;6.9;77
79467;SHT30;68933;49.726;9.226;2024-03-06T03:32:55;6.9;77
79467;SHT30;68933;49.726;9.226;2024-03-06T03:35:08;6.9;77
79467;SHT30;68933;49.726;9.226;2024-03-06T03:37:21;6.9;77
79467;SHT30;68933;49.726;9.226;2024-03-06T03:39:34;6.9;77
79467;SHT30;68933;49.726;9.226;2024-03-06T03:41:48;6.9;77
79467;SHT30;68933;49.726;9.226;2024-03-06T03:44:00;6.9;77
79467;SHT30;68933;49.726;9.226;2024-03-06T03:46:13;6.9;77
79467;SHT30;68933;49.726;9.226;2024-03-06T03:48:26;6.9;77
79467;SHT30;68933;49.726;9.226;2024-03-06T03:50:39;6.9;77
79467;SHT30;68933;49.726;9.226;2024-03-06T03:52:52;6.8;77
79467;SHT30;68933;49.726;9.226;2024-03-06T03:55:06;6.8;77
79467;SHT30;68933;49.726;9.226;2024-03-06T03:57:18;6.8;77
79467;SHT30;68933;49.726;9.226;2024-03-06T03:59:31;6.8;77
79467;SHT30;68933;49.726;9.226;2024-03-06T04:01:44;6.8;77
79467;SHT30;68933;49.726;9.226;2024-03-06T04:03:57;6.8;77
79467;SHT30;68933;49.726;9.226;2024-03-06T04:06:10;6.8;77
79467;SHT30;68933;49.726;9.226;2024-03-06T04:08:23;6.8;77
79467;SHT30;68933;49.726;9.226;2024-03-06T04:10:36;6.8;77
79467;SHT30;68933;49.726;9.226;2024-03-06T04:12:49;6.8;77
79467;SHT30;68933;49.726;9.226;2024-03-06T04:15:03;6.8;77
79467;SHT30;68933;49.726;9.226;2024-03-06T04:17:15;6.8;78
79467;SHT30;68933;49.726;9.226;2024-03-06T04:19:28;6.8;78
79467;SHT30;68933;49.726;9.226;2024-03-06T04:21:41;6.7;77
79467;SHT30;68933;49.726;9.226;2024-03-06T04:23:54;6.7;77
79467;SHT30;68933;49.726;9.226;2024-03-06T04:26:07;6.7;78
79467;SHT30;68933;49.726;9.226;2024-03-06T04:28:20;6.7;78
79467;SHT30;68933;49.726;9.226;2024-03-06T04:30:33;6.7;78
79467;SHT30;68933;49.726;9.226;2024-03-06T04:32:46;6.7;78
79467;SHT30;68933;49.726;9.226;2024-03-06T04:34:59;6.7;78
79467;SHT30;68933;49.726;9.226;2024-03-06T04:37:12;6.7;78
79467;SHT30;68933;49.726;9.226;2024-03-06T04:39:25;6.7;78
79467;SHT30;68933;49.726;9.226;2024-03-06T04:41:38;6.7;78
79467;SHT30;68933;49.726;9.226;2024-03-06T04:43:51;6.6;78
79467;SHT30;68933;49.726;9.226;2024-03-06T04:46:04;6.6;78
79467;SHT30;68933;49.726;9.226;2024-03-06T04:48:17;6.7;78
79467;SHT30;68933;49.726;9.226;2024-03-06T04:50:30;6.7;78
79467;SHT30;68933;49.726;9.226;2024-03-06T04:52:43;6.7;78
79467;SHT30;68933;49.726;9.226;2024-03-06T04:54:56;6.7;78
79467;SHT30;68933;49.726;9.226;2024-03-06T04:57:09;6.7;78
79467;SHT30;68933;49.726;9.226;2024-03-06T04:59:22;6.7;78
79467;SHT30;68933;49.726;9.226;2024-03-06T05:01:35;6.7;78
79467;SHT30;68933;49.726;9.226;2024-03-06T05:03:48;6.7;78
79467;SHT30;68933;49.726;9.226;2024-03-06T05:06:01;6.7;78
79467;SHT30;68933;49.726;9.226;2024-03-06T05:08:14;6.7;78
79467;SHT30;68933;49.726;9.226;2024-03-06T05:10:27;6.7;78
79467;SHT30;68933;49.726;9.226;2024-03-06T05:12:40;6.7;78
79467;SHT30;68933;49.726;9.226;2024-03-06T05:14:54;6.7;78
79467;SHT30;68933;49.726;9.226;2024-03-06T05:17:06;6.7;78
79467;SHT30;68933;49.726;9.226;2024-03-06T05:19:19;6.7;78
79467;SHT30;68933;49.726;9.226;2024-03-06T05:21:32;6.7;78
79467;SHT30;68933;49.726;9.226;2024-03-06T05:23:45;6.7;78
79467;SHT30;68933;49.726;9.226;2024-03-06T05:25:58;6.8;78
79467;SHT30;68933;49.726;9.226;2024-03-06T05:28:11;6.8;78
79467;SHT30;68933;49.726;9.226;2024-03-06T05:30:24;6.7;78
79467;SHT30;68933;49.726;9.226;2024-03-06T05:32:37;6.7;78
79467;SHT30;68933;49.726;9.226;2024-03-06T05:34:50;6.7;78
79467;SHT30;68933;49.726;9.226;2024-03-06T05:37:03;6.7;78
79467;SHT30;68933;49.726;9.226;2024-03-06T05:39:16;6.7;78
79467;SHT30;68933;49.726;9.226;2024-03-06T05:41:30;6.6;78
79467;SHT30;68933;49.726;9.226;2024-03-06T05:43:42;6.6;78
79467;SHT30;68933;49.726;9.226;2024-03-06T05:45:55;6.6;78
79467;SHT30;68933;49.726;9.226;2024-03-06T05:48:08;6.6;78
79467;SHT30;68933;49.726;9.226;2024-03-06T05:50:21;6.6;78
79467;SHT30;68933;49.726;9.226;2024-03-06T05:52:34;6.6;78
79467;SHT30;68933;49.726;9.226;2024-03-06T05:54:47;6.6;78
79467;SHT30;68933;49.726;9.226;2024-03-06T05:57:00;6.6;78
79467;SHT30;68933;49.726;9.226;2024-03-06T05:59:13;6.6;78
79467;SHT30;68933;49.726;9.226;2024-03-06T06:01:26;6.5;77
79467;SHT30;68933;49.726;9.226;2024-03-06T06:03:39;6.5;77
79467;SHT30;68933;49.726;9.226;2024-03-06T06:05:52;6.5;77
79467;SHT30;68933;49.726;9.226;2024-03-06T06:08:05;6.4;77
79467;SHT30;68933;49.726;9.226;2024-03-06T06:10:18;6.4;77
79467;SHT30;68933;49.726;9.226;2024-03-06T06:12:31;6.4;77
79467;SHT30;68933;49.726;9.226;2024-03-06T06:14:44;6.4;77
79467;SHT30;68933;49.726;9.226;2024-03-06T06:16:57;6.4;77
79467;SHT30;68933;49.726;9.226;2024-03-06T06:19:10;6.4;77
79467;SHT30;68933;49.726;9.226;2024-03-06T06:21:23;6.4;78
79467;SHT30;68933;49.726;9.226;2024-03-06T06:23:36;6.4;78
79467;SHT30;68933;49.726;9.226;2024-03-06T06:25:49;6.4;78
79467;SHT30;68933;49.726;9.226;2024-03-06T06:28:02;6.3;78
79467;SHT30;68933;49.726;9.226;2024-03-06T06:30:15;6.3;78
79467;SHT30;68933;49.726;9.226;2024-03-06T06:32:28;6.4;78
79467;SHT30;68933;49.726;9.226;2024-03-06T06:34:41;6.4;78
79467;SHT30;68933;49.726;9.226;2024-03-06T06:36:54;6.4;78
79467;SHT30;68933;49.726;9.226;2024-03-06T06:39:07;6.4;78
79467;SHT30;68933;49.726;9.226;2024-03-06T06:41:20;6.4;78
79467;SHT30;68933;49.726;9.226;2024-03-06T06:43:34;6.4;78
79467;SHT30;68933;49.726;9.226;2024-03-06T06:45:46;6.5;78
79467;SHT30;68933;49.726;9.226;2024-03-06T06:47:59;6.5;78
79467;SHT30;68933;49.726;9.226;2024-03-06T06:50:12;6.5;78
79467;SHT30;68933;49.726;9.226;2024-03-06T06:52:25;6.5;78
79467;SHT30;68933;49.726;9.226;2024-03-06T06:54:38;6.5;78
79467;SHT30;68933;49.726;9.226;2024-03-06T06:56:51;6.5;78
79467;SHT30;68933;49.726;9.226;2024-03-06T06:59:04;6.5;78
79467;SHT30;68933;49.726;9.226;2024-03-06T07:01:17;6.6;78
79467;SHT30;68933;49.726;9.226;2024-03-06T07:03:30;6.6;78
79467;SHT30;68933;49.726;9.226;2024-03-06T07:05:43;6.6;78
79467;SHT30;68933;49.726;9.226;2024-03-06T07:07:56;6.6;78
79467;SHT30;68933;49.726;9.226;2024-03-06T07:10:09;6.6;78
79467;SHT30;68933;49.726;9.226;2024-03-06T07:12:23;6.6;78
79467;SHT30;68933;49.726;9.226;2024-03-06T07:14:35;6.7;78
79467;SHT30;68933;49.726;9.226;2024-03-06T07:16:48;6.7;78
79467;SHT30;68933;49.726;9.226;2024-03-06T07:19:01;6.7;78
79467;SHT30;68933;49.726;9.226;2024-03-06T07:21:14;6.7;78
79467;SHT30;68933;49.726;9.226;2024-03-06T07:23:27;6.7;78
79467;SHT30;68933;49.726;9.226;2024-03-06T07:25:40;6.8;78
79467;SHT30;68933;49.726;9.226;2024-03-06T07:27:53;6.8;78
79467;SHT30;68933;49.726;9.226;2024-03-06T07:30:07;6.8;78
79467;SHT30;68933;49.726;9.226;2024-03-06T07:32:19;6.9;78
79467;SHT30;68933;49.726;9.226;2024-03-06T07:34:32;6.9;78
79467;SHT30;68933;49.726;9.226;2024-03-06T07:36:45;6.9;79
79467;SHT30;68933;49.726;9.226;2024-03-06T07:38:58;6.9;79
79467;SHT30;68933;49.726;9.226;2024-03-06T07:41:11;6.9;79
79467;SHT30;68933;49.726;9.226;2024-03-06T07:43:24;7;78
79467;SHT30;68933;49.726;9.226;2024-03-06T07:45:37;7;78
79467;SHT30;68933;49.726;9.226;2024-03-06T07:47:50;7.1;78
79467;SHT30;68933;49.726;9.226;2024-03-06T07:50:04;7.1;78
79467;SHT30;68933;49.726;9.226;2024-03-06T07:52:16;7.2;78
79467;SHT30;68933;49.726;9.226;2024-03-06T07:54:29;7.2;78
79467;SHT30;68933;49.726;9.226;2024-03-06T07:56:42;7.2;78
79467;SHT30;68933;49.726;9.226;2024-03-06T07:58:56;7.3;78
79467;SHT30;68933;49.726;9.226;2024-03-06T08:01:08;7.3;78
79467;SHT30;68933;49.726;9.226;2024-03-06T08:03:21;7.3;78
79467;SHT30;68933;49.726;9.226;2024-03-06T08:05:34;7.3;78
79467;SHT30;68933;49.726;9.226;2024-03-06T08:07:47;7.3;78
79467;SHT30;68933;49.726;9.226;2024-03-06T08:10:00;7.3;77
79467;SHT30;68933;49.726;9.226;2024-03-06T08:12:13;7.3;77
79467;SHT30;68933;49.726;9.226;2024-03-06T08:14:26;7.3;77
79467;SHT30;68933;49.726;9.226;2024-03-06T08:16:39;7.3;77
79467;SHT30;68933;49.726;9.226;2024-03-06T08:18:52;7.4;77
79467;SHT30;68933;49.726;9.226;2024-03-06T08:21:05;7.4;77
79467;SHT30;68933;49.726;9.226;2024-03-06T08:23:18;7.4;77
79467;SHT30;68933;49.726;9.226;2024-03-06T08:25:31;7.5;77
79467;SHT30;68933;49.726;9.226;2024-03-06T08:27:44;7.5;77
79467;SHT30;68933;49.726;9.226;2024-03-06T08:29:57;7.6;77
79467;SHT30;68933;49.726;9.226;2024-03-06T08:32:11;7.6;77
79467;SHT30;68933;49.726;9.226;2024-03-06T08:34:23;7.6;77
79467;SHT30;68933;49.726;9.226;2024-03-06T08:36:36;7.8;77
79467;SHT30;68933;49.726;9.226;2024-03-06T08:38:49;7.8;77
79467;SHT30;68933;49.726;9.226;2024-03-06T08:41:02;7.9;77
79467;SHT30;68933;49.726;9.226;2024-03-06T08:43:16;7.9;77
79467;SHT30;68933;49.726;9.226;2024-03-06T08:45:28;8.1;77
79467;SHT30;68933;49.726;9.226;2024-03-06T08:47:41;8.1;77
79467;SHT30;68933;49.726;9.226;2024-03-06T08:49:54;8.1;77
79467;SHT30;68933;49.726;9.226;2024-03-06T08:52:07;8.2;77
79467;SHT30;68933;49.726;9.226;2024-03-06T08:54:20;8.2;77
79467;SHT30;68933;49.726;9.226;2024-03-06T08:56:33;8.3;77
79467;SHT30;68933;49.726;9.226;2024-03-06T08:58:46;8.3;77
79467;SHT30;68933;49.726;9.226;2024-03-06T09:00:59;8.5;77
79467;SHT30;68933;49.726;9.226;2024-03-06T09:03:12;8.5;77
79467;SHT30;68933;49.726;9.226;2024-03-06T09:05:25;8.6;77
79467;SHT30;68933;49.726;9.226;2024-03-06T09:07:39;8.6;77
79467;SHT30;68933;49.726;9.226;2024-03-06T09:09:52;8.6;77
79467;SHT30;68933;49.726;9.226;2024-03-06T09:12:05;8.7;77
79467;SHT30;68933;49.726;9.226;2024-03-06T09:14:17;8.7;77
79467;SHT30;68933;49.726;9.226;2024-03-06T09:16:30;8.9;75
79467;SHT30;68933;49.726;9.226;2024-03-06T09:18:43;8.9;75
79467;SHT30;68933;49.726;9.226;2024-03-06T09:20:56;8.9;75
79467;SHT30;68933;49.726;9.226;2024-03-06T09:23:09;8.9;75
79467;SHT30;68933;49.726;9.226;2024-03-06T09:25:22;9;75
79467;SHT30;68933;49.726;9.226;2024-03-06T09:27:35;9;75
79467;SHT30;68933;49.726;9.226;2024-03-06T09:29:48;9;75
79467;SHT30;68933;49.726;9.226;2024-03-06T09:32:01;9.2;74
79467;SHT30;68933;49.726;9.226;2024-03-06T09:34:14;9.2;74
79467;SHT30;68933;49.726;9.226;2024-03-06T09:36:27;9.2;74
79467;SHT30;68933;49.726;9.226;2024-03-06T09:38:40;9.2;74
79467;SHT30;68933;49.726;9.226;2024-03-06T09:40:55;9.3;74
79467;SHT30;68933;49.726;9.226;2024-03-06T09:43:06;9.3;74
79467;SHT30;68933;49.726;9.226;2024-03-06T09:45:19;9.5;74
79467;SHT30;68933;49.726;9.226;2024-03-06T09:47:32;9.5;74
79467;SHT30;68933;49.726;9.226;2024-03-06T09:49:45;9.5;74
79467;SHT30;68933;49.726;9.226;2024-03-06T09:51:58;9.6;72
79467;SHT30;68933;49.726;9.226;2024-03-06T09:54:12;9.6;72
79467;SHT30;68933;49.726;9.226;2024-03-06T09:56:25;9.6;72
79467;SHT30;68933;49.726;9.226;2024-03-06T09:58:37;9.6;72
79467;SHT30;68933;49.726;9.226;2024-03-06T10:00:50;9.7;72
79467;SHT30;68933;49.726;9.226;2024-03-06T10:03:04;9.7;72
79467;SHT30;68933;49.726;9.226;2024-03-06T10:05:20;9.7;72
79467;SHT30;68933;49.726;9.226;2024-03-06T10:07:29;9.7;72
79467;SHT30;68933;49.726;9.226;2024-03-06T10:09:42;9.7;72
79467;SHT30;68933;49.726;9.226;2024-03-06T10:11:55;9.7;72
79467;SHT30;68933;49.726;9.226;2024-03-06T10:14:08;9.7;72
79467;SHT30;68933;49.726;9.226;2024-03-06T10:16:21;9.8;72
79467;SHT30;68933;49.726;9.226;2024-03-06T10:18:34;9.8;72
79467;SHT30;68933;49.726;9.226;2024-03-06T10:20:47;9.7;72
79467;SHT30;68933;49.726;9.226;2024-03-06T10:23:00;9.7;72
79467;SHT30;68933;49.726;9.226;2024-03-06T10:25:13;9.7;72
79467;SHT30;68933;49.726;9.226;2024-03-06T10:27:26;9.7;72
79467;SHT30;68933;49.726;9.226;2024-03-06T10:29:39;9.7;72
79467;SHT30;68933;49.726;9.226;2024-03-06T10:31:53;9.7;72
79467;SHT30;68933;49.726;9.226;2024-03-06T10:34:05;9.7;72
79467;SHT30;68933;49.726;9.226;2024-03-06T10:36:18;9.8;72
79467;SHT30;68933;49.726;9.226;2024-03-06T10:38:32;9.9;72
79467;SHT30;68933;49.726;9.226;2024-03-06T10:40:44;9.9;72
79467;SHT30;68933;49.726;9.226;2024-03-06T10:42:58;9.9;72
79467;SHT30;68933;49.726;9.226;2024-03-06T10:45:10;9.9;72
79467;SHT30;68933;49.726;9.226;2024-03-06T10:47:23;10.1;72
79467;SHT30;68933;49.726;9.226;2024-03-06T10:49:36;10.1;72
79467;SHT30;68933;49.726;9.226;2024-03-06T10:51:49;10.1;72
79467;SHT30;68933;49.726;9.226;2024-03-06T10:54:02;10.2;71
79467;SHT30;68933;49.726;9.226;2024-03-06T10:56:15;10.2;71
79467;SHT30;68933;49.726;9.226;2024-03-06T10:58:28;10.2;71
79467;SHT30;68933;49.726;9.226;2024-03-06T11:00:42;10.2;71
79467;SHT30;68933;49.726;9.226;2024-03-06T11:02:54;10.2;71
79467;SHT30;68933;49.726;9.226;2024-03-06T11:05:08;10.2;71
79467;SHT30;68933;49.726;9.226;2024-03-06T11:07:20;10.2;71
79467;SHT30;68933;49.726;9.226;2024-03-06T11:09:34;10.2;71
79467;SHT30;68933;49.726;9.226;2024-03-06T11:11:47;10.2;71
79467;SHT30;68933;49.726;9.226;2024-03-06T11:14:00;10.3;71
79467;SHT30;68933;49.726;9.226;2024-03-06T11:16:12;10.3;71
79467;SHT30;68933;49.726;9.226;2024-03-06T11:18:41;10.3;71
79467;SHT30;68933;49.726;9.226;2024-03-06T11:20:38;10.3;71
79467;SHT30;68933;49.726;9.226;2024-03-06T11:23:07;10.3;71
79467;SHT30;68933;49.726;9.226;2024-03-06T11:25:04;10.3;71
79467;SHT30;68933;49.726;9.226;2024-03-06T11:27:17;10.3;71
79467;SHT30;68933;49.726;9.226;2024-03-06T11:30:02;10.4;71
79467;SHT30;68933;49.726;9.226;2024-03-06T11:31:59;10.4;71
79467;SHT30;68933;49.726;9.226;2024-03-06T11:33:56;10.4;71
79467;SHT30;68933;49.726;9.226;2024-03-06T11:36:18;10.6;72
79467;SHT30;68933;49.726;9.226;2024-03-06T11:38:22;10.6;72
79467;SHT30;68933;49.726;9.226;2024-03-06T11:40:42;10.8;71
79467;SHT30;68933;49.726;9.226;2024-03-06T11:42:48;10.8;71
79467;SHT30;68933;49.726;9.226;2024-03-06T11:45:11;10.9;71
79467;SHT30;68933;49.726;9.226;2024-03-06T11:47:14;10.9;71
79467;SHT30;68933;49.726;9.226;2024-03-06T11:49:27;10.9;71
79467;SHT30;68933;49.726;9.226;2024-03-06T11:51:40;11.1;71
79467;SHT30;68933;49.726;9.226;2024-03-06T11:53:53;11.1;71
79467;SHT30;68933;49.726;9.226;2024-03-06T11:56:06;11.2;69
79467;SHT30;68933;49.726;9.226;2024-03-06T11:58:19;11.2;69
79467;SHT30;68933;49.726;9.226;2024-03-06T12:00:32;11.3;69
79467;SHT30;68933;49.726;9.226;2024-03-06T12:02:45;11.3;69
79467;SHT30;68933;49.726;9.226;2024-03-06T12:05:01;11.3;69
79467;SHT30;68933;49.726;9.226;2024-03-06T12:07:11;11.4;69
79467;SHT30;68933;49.726;9.226;2024-03-06T12:09:24;11.4;69
79467;SHT30;68933;49.726;9.226;2024-03-06T12:11:37;11.4;68
79467;SHT30;68933;49.726;9.226;2024-03-06T12:13:50;11.4;68
79467;SHT30;68933;49.726;9.226;2024-03-06T12:16:04;11.4;68
79467;SHT30;68933;49.726;9.226;2024-03-06T12:18:16;11.4;68
79467;SHT30;68933;49.726;9.226;2024-03-06T12:20:29;11.4;68
79467;SHT30;68933;49.726;9.226;2024-03-06T12:22:43;11.4;69
79467;SHT30;68933;49.726;9.226;2024-03-06T12:24:59;11.4;69
79467;SHT30;68933;49.726;9.226;2024-03-06T12:27:08;11.3;69
79467;SHT30;68933;49.726;9.226;2024-03-06T12:29:21;11.3;69
79467;SHT30;68933;49.726;9.226;2024-03-06T12:31:35;11.3;69
79467;SHT30;68933;49.726;9.226;2024-03-06T12:33:56;11.3;69
79467;SHT30;68933;49.726;9.226;2024-03-06T12:36:02;11.3;69
79467;SHT30;68933;49.726;9.226;2024-03-06T12:38:13;11.3;69
79467;SHT30;68933;49.726;9.226;2024-03-06T12:40:26;11.3;69
79467;SHT30;68933;49.726;9.226;2024-03-06T12:42:39;11.3;69
79467;SHT30;68933;49.726;9.226;2024-03-06T12:44:52;11.3;69
79467;SHT30;68933;49.726;9.226;2024-03-06T12:47:05;11.2;69
79467;SHT30;68933;49.726;9.226;2024-03-06T12:49:18;11.2;69
79467;SHT30;68933;49.726;9.226;2024-03-06T12:51:31;11.1;71
79467;SHT30;68933;49.726;9.226;2024-03-06T12:53:44;11.1;71
79467;SHT30;68933;49.726;9.226;2024-03-06T12:55:57;11.1;71
79467;SHT30;68933;49.726;9.226;2024-03-06T12:58:10;11.1;71
79467;SHT30;68933;49.726;9.226;2024-03-06T13:00:23;11.1;71
79467;SHT30;68933;49.726;9.226;2024-03-06T13:02:36;11.1;71
79467;SHT30;68933;49.726;9.226;2024-03-06T13:04:49;11.1;71
79467;SHT30;68933;49.726;9.226;2024-03-06T13:07:02;11.2;71
79467;SHT30;68933;49.726;9.226;2024-03-06T13:09:15;11.2;71
79467;SHT30;68933;49.726;9.226;2024-03-06T13:11:28;11.3;71
79467;SHT30;68933;49.726;9.226;2024-03-06T13:13:41;11.3;71
79467;SHT30;68933;49.726;9.226;2024-03-06T13:15:56;11.3;69
79467;SHT30;68933;49.726;9.226;2024-03-06T13:18:07;11.3;69
79467;SHT30;68933;49.726;9.226;2024-03-06T13:20:20;11.5;71
79467;SHT30;68933;49.726;9.226;2024-03-06T13:22:34;11.5;71
79467;SHT30;68933;49.726;9.226;2024-03-06T13:24:46;11.6;71
79467;SHT30;68933;49.726;9.226;2024-03-06T13:27:00;11.6;71
79467;SHT30;68933;49.726;9.226;2024-03-06T13:29:12;11.7;69
79467;SHT30;68933;49.726;9.226;2024-03-06T13:31:25;11.7;69
79467;SHT30;68933;49.726;9.226;2024-03-06T13:33:38;11.7;69
79467;SHT30;68933;49.726;9.226;2024-03-06T13:35:51;11.8;69
79467;SHT30;68933;49.726;9.226;2024-03-06T13:38:04;11.8;69
79467;SHT30;68933;49.726;9.226;2024-03-06T13:40:17;11.9;68
79467;SHT30;68933;49.726;9.226;2024-03-06T13:42:30;11.9;68
79467;SHT30;68933;49.726;9.226;2024-03-06T13:44:43;11.9;68
79467;SHT30;68933;49.726;9.226;2024-03-06T13:46:56;11.9;68
79467;SHT30;68933;49.726;9.226;2024-03-06T13:49:11;11.9;68
79467;SHT30;68933;49.726;9.226;2024-03-06T13:51:22;11.9;67
79467;SHT30;68933;49.726;9.226;2024-03-06T13:53:35;11.9;67
79467;SHT30;68933;49.726;9.226;2024-03-06T13:55:48;12;68
79467;SHT30;68933;49.726;9.226;2024-03-06T13:58:01;12;68
79467;SHT30;68933;49.726;9.226;2024-03-06T14:00:15;12;68
79467;SHT30;68933;49.726;9.226;2024-03-06T14:02:27;12;68
79467;SHT30;68933;49.726;9.226;2024-03-06T14:04:40;12;68
79467;SHT30;68933;49.726;9.226;2024-03-06T14:06:53;12.2;67
79467;SHT30;68933;49.726;9.226;2024-03-06T14:09:06;12.2;67
79467;SHT30;68933;49.726;9.226;2024-03-06T14:11:19;12.2;67
79467;SHT30;68933;49.726;9.226;2024-03-06T14:13:32;12.3;67
79467;SHT30;68933;49.726;9.226;2024-03-06T14:15:45;12.3;67
79467;SHT30;68933;49.726;9.226;2024-03-06T14:17:58;12.5;65
79467;SHT30;68933;49.726;9.226;2024-03-06T14:20:11;12.5;65
79467;SHT30;68933;49.726;9.226;2024-03-06T14:22:24;12.6;65
79467;SHT30;68933;49.726;9.226;2024-03-06T14:24:37;12.6;65
79467;SHT30;68933;49.726;9.226;2024-03-06T14:26:50;12.6;65
79467;SHT30;68933;49.726;9.226;2024-03-06T14:29:05;12.7;65
79467;SHT30;68933;49.726;9.226;2024-03-06T14:31:16;12.7;65
79467;SHT30;68933;49.726;9.226;2024-03-06T14:33:29;12.9;65
79467;SHT30;68933;49.726;9.226;2024-03-06T14:35:42;12.9;65
79467;SHT30;68933;49.726;9.226;2024-03-06T14:37:55;13.1;67
79467;SHT30;68933;49.726;9.226;2024-03-06T14:40:09;13.1;67
79467;SHT30;68933;49.726;9.226;2024-03-06T14:42:21;13.1;67
79467;SHT30;68933;49.726;9.226;2024-03-06T14:44:34;13.3;64
79467;SHT30;68933;49.726;9.226;2024-03-06T14:46:47;13.3;64
79467;SHT30;68933;49.726;9.226;2024-03-06T14:49:00;13.5;63
79467;SHT30;68933;49.726;9.226;2024-03-06T14:51:13;13.5;63
79467;SHT30;68933;49.726;9.226;2024-03-06T14:53:26;13.3;61
79467;SHT30;68933;49.726;9.226;2024-03-06T14:55:39;13.3;61
79467;SHT30;68933;49.726;9.226;2024-03-06T14:57:52;13.3;61
79467;SHT30;68933;49.726;9.226;2024-03-06T15:00:06;13.2;61
79467;SHT30;68933;49.726;9.226;2024-03-06T15:02:18;13.2;61
79467;SHT30;68933;49.726;9.226;2024-03-06T15:04:31;13.1;63
79467;SHT30;68933;49.726;9.226;2024-03-06T15:06:45;13.1;63
79467;SHT30;68933;49.726;9.226;2024-03-06T15:08:57;13;63
79467;SHT30;68933;49.726;9.226;2024-03-06T15:11:10;13;63
79467;SHT30;68933;49.726;9.226;2024-03-06T15:13:23;13;63
79467;SHT30;68933;49.726;9.226;2024-03-06T15:15:36;12.9;63
79467;SHT30;68933;49.726;9.226;2024-03-06T15:17:49;12.9;63